sensor_id;sensor_type;location;lat;lon;timestamp;P1;durP1;ratioP1;P2;durP2;ratioP2
20861;SDS011;10591;52.532;13.348;2023-07-09T00:00:51;6.50;;;5.65;;
20861;SDS011;10591;52.532;13.348;2023-07-09T00:03:22;6.97;;;4.85;;
20861;SDS011;10591;52.532;13.348;2023-07-09T00:05:53;5.00;;;4.47;;
20861;SDS011;10591;52.532;13.348;2023-07-09T00:08:31;5.10;;;4.60;;
20861;SDS011;10591;52.532;13.348;2023-07-09T00:11:00;5.17;;;4.28;;
20861;SDS011;10591;52.532;13.348;2023-07-09T00:13:30;5.12;;;4.62;;
20861;SDS011;10591;52.532;13.348;2023-07-09T00:16:03;5.08;;;4.60;;
20861;SDS011;10591;52.532;13.348;2023-07-09T00:18:36;5.85;;;4.92;;
20861;SDS011;10591;52.532;13.348;2023-07-09T00:21:06;4.90;;;4.22;;
20861;SDS011;10591;52.532;13.348;2023-07-09T00:23:37;5.00;;;4.50;;
20861;SDS011;10591;52.532;13.348;2023-07-09T00:26:09;4.40;;;4.00;;
20861;SDS011;10591;52.532;13.348;2023-07-09T00:28:43;4.35;;;3.90;;
20861;SDS011;10591;52.532;13.348;2023-07-09T00:31:14;6.97;;;4.65;;
20861;SDS011;10591;52.532;13.348;2023-07-09T00:33:46;4.30;;;3.90;;
20861;SDS011;10591;52.532;13.348;2023-07-09T00:36:20;4.40;;;3.95;;
20861;SDS011;10591;52.532;13.348;2023-07-09T00:38:54;5.08;;;4.03;;
20861;SDS011;10591;52.532;13.348;2023-07-09T00:41:28;5.05;;;4.15;;
20861;SDS011;10591;52.532;13.348;2023-07-09T00:47:12;6.08;;;4.25;;
20861;SDS011;10591;52.532;13.348;2023-07-09T00:49:44;5.40;;;4.10;;
20861;SDS011;10591;52.532;13.348;2023-07-09T00:54:51;8.90;;;5.87;;
20861;SDS011;10591;52.532;13.348;2023-07-09T00:57:25;5.45;;;4.10;;
20861;SDS011;10591;52.532;13.348;2023-07-09T01:00:03;6.90;;;4.28;;
20861;SDS011;10591;52.532;13.348;2023-07-09T01:02:43;5.28;;;4.50;;
20861;SDS011;10591;52.532;13.348;2023-07-09T01:05:15;6.33;;;4.70;;
20861;SDS011;10591;52.532;13.348;2023-07-09T01:07:49;5.50;;;4.97;;
20861;SDS011;10591;52.532;13.348;2023-07-09T01:10:21;5.55;;;4.50;;
20861;SDS011;10591;52.532;13.348;2023-07-09T01:12:53;5.60;;;5.10;;
20861;SDS011;10591;52.532;13.348;2023-07-09T01:15:24;5.30;;;4.53;;
20861;SDS011;10591;52.532;13.348;2023-07-09T01:17:54;4.22;;;3.83;;
20861;SDS011;10591;52.532;13.348;2023-07-09T01:20:26;5.58;;;4.00;;
20861;SDS011;10591;52.532;13.348;2023-07-09T01:22:57;4.83;;;4.08;;
20861;SDS011;10591;52.532;13.348;2023-07-09T01:25:29;4.60;;;4.15;;
20861;SDS011;10591;52.532;13.348;2023-07-09T01:27:59;5.12;;;4.20;;
20861;SDS011;10591;52.532;13.348;2023-07-09T01:30:31;5.33;;;4.15;;
20861;SDS011;10591;52.532;13.348;2023-07-09T01:33:05;4.53;;;4.12;;
20861;SDS011;10591;52.532;13.348;2023-07-09T01:35:39;5.20;;;4.03;;
20861;SDS011;10591;52.532;13.348;2023-07-09T01:38:12;5.78;;;4.28;;
20861;SDS011;10591;52.532;13.348;2023-07-09T01:40:44;5.85;;;4.42;;
20861;SDS011;10591;52.532;13.348;2023-07-09T01:43:15;4.58;;;4.10;;
20861;SDS011;10591;52.532;13.348;2023-07-09T01:45:46;6.35;;;5.72;;
20861;SDS011;10591;52.532;13.348;2023-07-09T01:48:18;4.75;;;4.30;;
20861;SDS011;10591;52.532;13.348;2023-07-09T01:50:49;4.58;;;4.17;;
20861;SDS011;10591;52.532;13.348;2023-07-09T01:53:25;5.12;;;4.35;;
20861;SDS011;10591;52.532;13.348;2023-07-09T01:55:54;5.05;;;4.15;;
20861;SDS011;10591;52.532;13.348;2023-07-09T01:58:24;4.22;;;3.83;;
20861;SDS011;10591;52.532;13.348;2023-07-09T02:00:57;4.37;;;3.72;;
20861;SDS011;10591;52.532;13.348;2023-07-09T02:03:28;4.70;;;4.17;;
20861;SDS011;10591;52.532;13.348;2023-07-09T02:05:59;5.17;;;4.20;;
20861;SDS011;10591;52.532;13.348;2023-07-09T02:08:32;4.62;;;4.22;;
20861;SDS011;10591;52.532;13.348;2023-07-09T02:11:03;5.47;;;4.00;;
20861;SDS011;10591;52.532;13.348;2023-07-09T02:13:34;5.50;;;4.53;;
20861;SDS011;10591;52.532;13.348;2023-07-09T02:16:04;6.50;;;4.90;;
20861;SDS011;10591;52.532;13.348;2023-07-09T02:18:35;5.75;;;5.25;;
20861;SDS011;10591;52.532;13.348;2023-07-09T02:21:06;6.00;;;5.00;;
20861;SDS011;10591;52.532;13.348;2023-07-09T02:23:36;6.85;;;4.65;;
20861;SDS011;10591;52.532;13.348;2023-07-09T02:26:07;5.10;;;4.50;;
20861;SDS011;10591;52.532;13.348;2023-07-09T02:28:38;4.70;;;4.05;;
20861;SDS011;10591;52.532;13.348;2023-07-09T02:31:09;5.28;;;4.35;;
20861;SDS011;10591;52.532;13.348;2023-07-09T02:33:39;5.65;;;4.30;;
20861;SDS011;10591;52.532;13.348;2023-07-09T02:36:10;5.45;;;4.60;;
20861;SDS011;10591;52.532;13.348;2023-07-09T02:38:40;4.72;;;4.20;;
20861;SDS011;10591;52.532;13.348;2023-07-09T02:41:11;6.33;;;5.62;;
20861;SDS011;10591;52.532;13.348;2023-07-09T02:43:42;6.72;;;4.28;;
20861;SDS011;10591;52.532;13.348;2023-07-09T02:46:13;5.08;;;4.15;;
20861;SDS011;10591;52.532;13.348;2023-07-09T02:48:43;4.67;;;4.20;;
20861;SDS011;10591;52.532;13.348;2023-07-09T02:51:14;5.70;;;5.03;;
20861;SDS011;10591;52.532;13.348;2023-07-09T02:53:47;5.47;;;4.42;;
20861;SDS011;10591;52.532;13.348;2023-07-09T02:56:18;4.90;;;4.40;;
20861;SDS011;10591;52.532;13.348;2023-07-09T02:58:49;5.67;;;4.65;;
20861;SDS011;10591;52.532;13.348;2023-07-09T03:01:20;6.37;;;4.53;;
20861;SDS011;10591;52.532;13.348;2023-07-09T03:03:59;5.22;;;3.90;;
20861;SDS011;10591;52.532;13.348;2023-07-09T03:06:26;4.62;;;4.00;;
20861;SDS011;10591;52.532;13.348;2023-07-09T03:08:57;4.87;;;4.37;;
20861;SDS011;10591;52.532;13.348;2023-07-09T03:11:29;5.12;;;4.58;;
20861;SDS011;10591;52.532;13.348;2023-07-09T03:14:01;4.95;;;4.47;;
20861;SDS011;10591;52.532;13.348;2023-07-09T03:16:33;6.92;;;5.20;;
20861;SDS011;10591;52.532;13.348;2023-07-09T03:19:03;5.05;;;4.65;;
20861;SDS011;10591;52.532;13.348;2023-07-09T03:21:34;6.20;;;4.65;;
20861;SDS011;10591;52.532;13.348;2023-07-09T03:24:06;5.83;;;5.12;;
20861;SDS011;10591;52.532;13.348;2023-07-09T03:26:37;5.80;;;4.65;;
20861;SDS011;10591;52.532;13.348;2023-07-09T03:29:07;5.65;;;5.15;;
20861;SDS011;10591;52.532;13.348;2023-07-09T03:31:38;5.62;;;5.08;;
20861;SDS011;10591;52.532;13.348;2023-07-09T03:34:09;5.37;;;4.83;;
20861;SDS011;10591;52.532;13.348;2023-07-09T03:36:40;6.35;;;5.20;;
20861;SDS011;10591;52.532;13.348;2023-07-09T03:39:12;6.72;;;4.85;;
20861;SDS011;10591;52.532;13.348;2023-07-09T03:41:43;6.12;;;4.95;;
20861;SDS011;10591;52.532;13.348;2023-07-09T03:44:14;5.12;;;4.62;;
20861;SDS011;10591;52.532;13.348;2023-07-09T03:46:44;5.85;;;5.15;;
20861;SDS011;10591;52.532;13.348;2023-07-09T03:49:15;5.75;;;4.62;;
20861;SDS011;10591;52.532;13.348;2023-07-09T03:51:45;7.20;;;4.58;;
20861;SDS011;10591;52.532;13.348;2023-07-09T03:54:16;6.00;;;4.62;;
20861;SDS011;10591;52.532;13.348;2023-07-09T03:56:46;4.65;;;4.22;;
20861;SDS011;10591;52.532;13.348;2023-07-09T03:59:18;4.87;;;4.47;;
20861;SDS011;10591;52.532;13.348;2023-07-09T04:01:48;4.97;;;4.53;;
20861;SDS011;10591;52.532;13.348;2023-07-09T04:04:19;5.65;;;5.15;;
20861;SDS011;10591;52.532;13.348;2023-07-09T04:06:50;5.40;;;4.90;;
20861;SDS011;10591;52.532;13.348;2023-07-09T04:09:21;5.10;;;4.60;;
20861;SDS011;10591;52.532;13.348;2023-07-09T04:11:51;5.40;;;4.65;;
20861;SDS011;10591;52.532;13.348;2023-07-09T04:14:22;6.08;;;4.95;;
20861;SDS011;10591;52.532;13.348;2023-07-09T04:16:53;6.50;;;5.08;;
20861;SDS011;10591;52.532;13.348;2023-07-09T04:19:24;5.45;;;4.80;;
20861;SDS011;10591;52.532;13.348;2023-07-09T04:21:55;6.15;;;5.12;;
20861;SDS011;10591;52.532;13.348;2023-07-09T04:24:25;5.05;;;4.60;;
20861;SDS011;10591;52.532;13.348;2023-07-09T04:26:56;6.47;;;5.05;;
20861;SDS011;10591;52.532;13.348;2023-07-09T04:29:27;7.25;;;5.58;;
20861;SDS011;10591;52.532;13.348;2023-07-09T04:31:58;5.75;;;5.10;;
20861;SDS011;10591;52.532;13.348;2023-07-09T04:34:28;5.45;;;4.97;;
20861;SDS011;10591;52.532;13.348;2023-07-09T04:36:59;5.42;;;4.70;;
20861;SDS011;10591;52.532;13.348;2023-07-09T04:39:29;5.50;;;5.00;;
20861;SDS011;10591;52.532;13.348;2023-07-09T04:42:00;5.37;;;4.87;;
20861;SDS011;10591;52.532;13.348;2023-07-09T04:44:31;5.22;;;4.72;;
20861;SDS011;10591;52.532;13.348;2023-07-09T04:47:05;5.53;;;4.97;;
20861;SDS011;10591;52.532;13.348;2023-07-09T04:49:36;5.30;;;4.78;;
20861;SDS011;10591;52.532;13.348;2023-07-09T04:52:08;5.10;;;4.40;;
20861;SDS011;10591;52.532;13.348;2023-07-09T04:54:40;5.25;;;4.75;;
20861;SDS011;10591;52.532;13.348;2023-07-09T04:57:13;5.70;;;5.20;;
20861;SDS011;10591;52.532;13.348;2023-07-09T04:59:44;5.65;;;4.80;;
20861;SDS011;10591;52.532;13.348;2023-07-09T05:02:15;5.33;;;4.72;;
20861;SDS011;10591;52.532;13.348;2023-07-09T05:04:45;4.85;;;4.35;;
20861;SDS011;10591;52.532;13.348;2023-07-09T05:07:16;5.72;;;4.40;;
20861;SDS011;10591;52.532;13.348;2023-07-09T05:09:46;6.20;;;4.92;;
20861;SDS011;10591;52.532;13.348;2023-07-09T05:12:17;5.50;;;5.00;;
20861;SDS011;10591;52.532;13.348;2023-07-09T05:14:49;5.08;;;4.65;;
20861;SDS011;10591;52.532;13.348;2023-07-09T05:17:23;6.05;;;4.50;;
20861;SDS011;10591;52.532;13.348;2023-07-09T05:19:57;4.78;;;4.37;;
20861;SDS011;10591;52.532;13.348;2023-07-09T05:22:27;5.03;;;4.60;;
20861;SDS011;10591;52.532;13.348;2023-07-09T05:24:58;4.40;;;3.98;;
20861;SDS011;10591;52.532;13.348;2023-07-09T05:27:29;4.65;;;4.25;;
20861;SDS011;10591;52.532;13.348;2023-07-09T05:30:00;4.30;;;3.90;;
20861;SDS011;10591;52.532;13.348;2023-07-09T05:32:36;4.78;;;4.03;;
20861;SDS011;10591;52.532;13.348;2023-07-09T05:35:08;4.90;;;4.40;;
20861;SDS011;10591;52.532;13.348;2023-07-09T05:37:40;4.00;;;3.67;;
20861;SDS011;10591;52.532;13.348;2023-07-09T05:40:11;8.18;;;4.70;;
20861;SDS011;10591;52.532;13.348;2023-07-09T05:42:42;4.67;;;3.67;;
20861;SDS011;10591;52.532;13.348;2023-07-09T05:45:13;4.72;;;3.92;;
20861;SDS011;10591;52.532;13.348;2023-07-09T05:47:44;4.72;;;4.33;;
20861;SDS011;10591;52.532;13.348;2023-07-09T05:50:14;4.53;;;4.12;;
20861;SDS011;10591;52.532;13.348;2023-07-09T05:52:45;4.83;;;4.42;;
20861;SDS011;10591;52.532;13.348;2023-07-09T05:55:15;4.28;;;3.85;;
20861;SDS011;10591;52.532;13.348;2023-07-09T05:57:46;4.67;;;4.25;;
20861;SDS011;10591;52.532;13.348;2023-07-09T06:00:19;4.67;;;4.05;;
20861;SDS011;10591;52.532;13.348;2023-07-09T06:02:50;4.50;;;4.12;;
20861;SDS011;10591;52.532;13.348;2023-07-09T06:05:21;4.03;;;3.72;;
20861;SDS011;10591;52.532;13.348;2023-07-09T06:07:52;4.70;;;4.15;;
20861;SDS011;10591;52.532;13.348;2023-07-09T06:10:22;4.17;;;3.83;;
20861;SDS011;10591;52.532;13.348;2023-07-09T06:12:54;5.85;;;4.20;;
20861;SDS011;10591;52.532;13.348;2023-07-09T06:15:26;4.47;;;3.62;;
20861;SDS011;10591;52.532;13.348;2023-07-09T06:17:57;4.62;;;4.08;;
20861;SDS011;10591;52.532;13.348;2023-07-09T06:20:28;4.58;;;4.08;;
20861;SDS011;10591;52.532;13.348;2023-07-09T06:22:59;4.20;;;3.90;;
20861;SDS011;10591;52.532;13.348;2023-07-09T06:25:30;5.00;;;4.20;;
20861;SDS011;10591;52.532;13.348;2023-07-09T06:28:01;4.10;;;3.80;;
20861;SDS011;10591;52.532;13.348;2023-07-09T06:30:31;6.90;;;4.10;;
20861;SDS011;10591;52.532;13.348;2023-07-09T06:33:02;4.95;;;3.83;;
20861;SDS011;10591;52.532;13.348;2023-07-09T06:35:34;7.95;;;4.20;;
20861;SDS011;10591;52.532;13.348;2023-07-09T06:38:06;4.25;;;3.92;;
20861;SDS011;10591;52.532;13.348;2023-07-09T06:40:37;5.58;;;3.80;;
20861;SDS011;10591;52.532;13.348;2023-07-09T06:43:08;4.28;;;3.85;;
20861;SDS011;10591;52.532;13.348;2023-07-09T06:45:47;5.03;;;4.20;;
20861;SDS011;10591;52.532;13.348;2023-07-09T06:48:30;4.35;;;3.80;;
20861;SDS011;10591;52.532;13.348;2023-07-09T06:51:01;3.92;;;3.62;;
20861;SDS011;10591;52.532;13.348;2023-07-09T06:53:33;4.53;;;3.67;;
20861;SDS011;10591;52.532;13.348;2023-07-09T06:56:06;5.85;;;3.85;;
20861;SDS011;10591;52.532;13.348;2023-07-09T06:58:37;4.30;;;4.00;;
20861;SDS011;10591;52.532;13.348;2023-07-09T07:01:12;4.10;;;3.80;;
20861;SDS011;10591;52.532;13.348;2023-07-09T07:03:44;4.50;;;4.12;;
20861;SDS011;10591;52.532;13.348;2023-07-09T07:06:15;4.05;;;3.67;;
20861;SDS011;10591;52.532;13.348;2023-07-09T07:08:47;4.35;;;3.98;;
20861;SDS011;10591;52.532;13.348;2023-07-09T07:11:19;4.62;;;4.15;;
20861;SDS011;10591;52.532;13.348;2023-07-09T07:13:51;4.80;;;4.22;;
20861;SDS011;10591;52.532;13.348;2023-07-09T07:16:25;7.55;;;4.85;;
20861;SDS011;10591;52.532;13.348;2023-07-09T07:18:56;5.10;;;4.60;;
20861;SDS011;10591;52.532;13.348;2023-07-09T07:21:26;5.00;;;4.50;;
20861;SDS011;10591;52.532;13.348;2023-07-09T07:23:57;4.90;;;4.50;;
20861;SDS011;10591;52.532;13.348;2023-07-09T07:26:28;4.40;;;4.10;;
20861;SDS011;10591;52.532;13.348;2023-07-09T07:28:59;7.70;;;4.58;;
20861;SDS011;10591;52.532;13.348;2023-07-09T07:31:34;5.33;;;4.83;;
20861;SDS011;10591;52.532;13.348;2023-07-09T07:34:06;4.80;;;4.40;;
20861;SDS011;10591;52.532;13.348;2023-07-09T07:36:38;5.03;;;4.60;;
20861;SDS011;10591;52.532;13.348;2023-07-09T07:39:11;5.90;;;4.53;;
20861;SDS011;10591;52.532;13.348;2023-07-09T07:41:41;5.00;;;4.60;;
20861;SDS011;10591;52.532;13.348;2023-07-09T07:44:14;4.90;;;4.47;;
20861;SDS011;10591;52.532;13.348;2023-07-09T07:46:46;4.95;;;4.47;;
20861;SDS011;10591;52.532;13.348;2023-07-09T07:49:17;5.85;;;5.25;;
20861;SDS011;10591;52.532;13.348;2023-07-09T07:51:49;5.20;;;4.70;;
20861;SDS011;10591;52.532;13.348;2023-07-09T07:54:21;5.53;;;5.03;;
20861;SDS011;10591;52.532;13.348;2023-07-09T07:56:51;4.80;;;4.40;;
20861;SDS011;10591;52.532;13.348;2023-07-09T07:59:23;4.80;;;4.40;;
20861;SDS011;10591;52.532;13.348;2023-07-09T08:01:54;5.12;;;4.60;;
20861;SDS011;10591;52.532;13.348;2023-07-09T08:04:25;6.22;;;4.70;;
20861;SDS011;10591;52.532;13.348;2023-07-09T08:06:57;5.67;;;4.58;;
20861;SDS011;10591;52.532;13.348;2023-07-09T08:09:28;4.87;;;4.45;;
20861;SDS011;10591;52.532;13.348;2023-07-09T08:11:59;5.97;;;4.85;;
20861;SDS011;10591;52.532;13.348;2023-07-09T08:14:32;5.08;;;4.58;;
20861;SDS011;10591;52.532;13.348;2023-07-09T08:17:04;5.10;;;4.60;;
20861;SDS011;10591;52.532;13.348;2023-07-09T08:19:45;5.47;;;4.83;;
20861;SDS011;10591;52.532;13.348;2023-07-09T08:22:18;4.97;;;4.55;;
20861;SDS011;10591;52.532;13.348;2023-07-09T08:24:52;7.42;;;4.65;;
20861;SDS011;10591;52.532;13.348;2023-07-09T08:27:24;5.50;;;5.00;;
20861;SDS011;10591;52.532;13.348;2023-07-09T08:29:56;5.10;;;4.50;;
20861;SDS011;10591;52.532;13.348;2023-07-09T08:32:26;7.30;;;4.87;;
20861;SDS011;10591;52.532;13.348;2023-07-09T08:34:58;5.08;;;4.67;;
20861;SDS011;10591;52.532;13.348;2023-07-09T08:37:31;5.22;;;4.70;;
20861;SDS011;10591;52.532;13.348;2023-07-09T08:40:02;5.25;;;4.83;;
20861;SDS011;10591;52.532;13.348;2023-07-09T08:42:36;5.58;;;4.60;;
20861;SDS011;10591;52.532;13.348;2023-07-09T08:45:22;5.05;;;4.60;;
20861;SDS011;10591;52.532;13.348;2023-07-09T08:48:01;5.40;;;4.90;;
20861;SDS011;10591;52.532;13.348;2023-07-09T08:50:41;5.60;;;4.83;;
20861;SDS011;10591;52.532;13.348;2023-07-09T08:53:21;5.95;;;5.00;;
20861;SDS011;10591;52.532;13.348;2023-07-09T08:55:53;5.67;;;4.92;;
20861;SDS011;10591;52.532;13.348;2023-07-09T08:58:26;5.37;;;4.97;;
20861;SDS011;10591;52.532;13.348;2023-07-09T09:01:01;5.97;;;4.83;;
20861;SDS011;10591;52.532;13.348;2023-07-09T09:03:37;5.08;;;4.60;;
20861;SDS011;10591;52.532;13.348;2023-07-09T09:06:12;6.42;;;4.65;;
20861;SDS011;10591;52.532;13.348;2023-07-09T09:11:43;5.45;;;4.70;;
20861;SDS011;10591;52.532;13.348;2023-07-09T09:14:21;5.65;;;4.80;;
20861;SDS011;10591;52.532;13.348;2023-07-09T09:17:13;5.28;;;4.78;;
20861;SDS011;10591;52.532;13.348;2023-07-09T09:19:53;6.92;;;4.80;;
20861;SDS011;10591;52.532;13.348;2023-07-09T09:22:46;6.80;;;5.87;;
20861;SDS011;10591;52.532;13.348;2023-07-09T09:25:30;5.50;;;5.00;;
20861;SDS011;10591;52.532;13.348;2023-07-09T09:28:01;4.95;;;4.40;;
20861;SDS011;10591;52.532;13.348;2023-07-09T09:30:33;5.00;;;4.60;;
20861;SDS011;10591;52.532;13.348;2023-07-09T09:33:07;5.55;;;4.75;;
20861;SDS011;10591;52.532;13.348;2023-07-09T09:35:42;5.28;;;4.78;;
20861;SDS011;10591;52.532;13.348;2023-07-09T09:38:22;6.05;;;4.60;;
20861;SDS011;10591;52.532;13.348;2023-07-09T09:40:50;5.28;;;4.72;;
20861;SDS011;10591;52.532;13.348;2023-07-09T09:43:23;4.80;;;4.40;;
20861;SDS011;10591;52.532;13.348;2023-07-09T09:45:55;5.80;;;4.67;;
20861;SDS011;10591;52.532;13.348;2023-07-09T09:48:31;5.00;;;4.60;;
20861;SDS011;10591;52.532;13.348;2023-07-09T09:51:05;4.95;;;4.47;;
20861;SDS011;10591;52.532;13.348;2023-07-09T09:53:40;4.90;;;4.50;;
20861;SDS011;10591;52.532;13.348;2023-07-09T09:56:16;6.97;;;5.62;;
20861;SDS011;10591;52.532;13.348;2023-07-09T09:58:59;5.53;;;4.30;;
20861;SDS011;10591;52.532;13.348;2023-07-09T10:01:32;5.50;;;5.10;;
20861;SDS011;10591;52.532;13.348;2023-07-09T10:04:05;4.97;;;4.58;;
20861;SDS011;10591;52.532;13.348;2023-07-09T10:06:37;6.17;;;4.47;;
20861;SDS011;10591;52.532;13.348;2023-07-09T10:09:23;5.10;;;4.62;;
20861;SDS011;10591;52.532;13.348;2023-07-09T10:12:09;4.80;;;4.35;;
20861;SDS011;10591;52.532;13.348;2023-07-09T10:14:49;4.70;;;4.30;;
20861;SDS011;10591;52.532;13.348;2023-07-09T10:17:38;4.92;;;4.53;;
20861;SDS011;10591;52.532;13.348;2023-07-09T10:28:37;5.53;;;4.75;;
20861;SDS011;10591;52.532;13.348;2023-07-09T10:34:05;5.65;;;5.05;;
20861;SDS011;10591;52.532;13.348;2023-07-09T10:39:34;5.17;;;4.65;;
20861;SDS011;10591;52.532;13.348;2023-07-09T10:42:13;5.10;;;4.60;;
20861;SDS011;10591;52.532;13.348;2023-07-09T10:44:44;5.30;;;4.60;;
20861;SDS011;10591;52.532;13.348;2023-07-09T10:47:38;5.65;;;4.72;;
20861;SDS011;10591;52.532;13.348;2023-07-09T10:49:54;5.08;;;4.65;;
20861;SDS011;10591;52.532;13.348;2023-07-09T10:52:29;5.22;;;4.72;;
20861;SDS011;10591;52.532;13.348;2023-07-09T10:57:43;5.35;;;4.85;;
20861;SDS011;10591;52.532;13.348;2023-07-09T11:00:32;5.37;;;4.97;;
20861;SDS011;10591;52.532;13.348;2023-07-09T11:03:05;5.10;;;4.60;;
20861;SDS011;10591;52.532;13.348;2023-07-09T11:05:43;5.28;;;4.60;;
20861;SDS011;10591;52.532;13.348;2023-07-09T11:08:30;6.00;;;4.70;;
20861;SDS011;10591;52.532;13.348;2023-07-09T11:11:02;5.17;;;4.70;;
20861;SDS011;10591;52.532;13.348;2023-07-09T11:13:41;5.75;;;5.17;;
20861;SDS011;10591;52.532;13.348;2023-07-09T11:16:24;5.90;;;4.90;;
20861;SDS011;10591;52.532;13.348;2023-07-09T11:18:55;5.00;;;4.50;;
20861;SDS011;10591;52.532;13.348;2023-07-09T11:21:27;6.08;;;4.80;;
20861;SDS011;10591;52.532;13.348;2023-07-09T11:23:59;5.12;;;4.65;;
20861;SDS011;10591;52.532;13.348;2023-07-09T11:26:34;5.67;;;5.03;;
20861;SDS011;10591;52.532;13.348;2023-07-09T11:31:45;5.70;;;4.75;;
20861;SDS011;10591;52.532;13.348;2023-07-09T11:34:18;5.87;;;5.00;;
20861;SDS011;10591;52.532;13.348;2023-07-09T11:37:00;5.12;;;4.67;;
20861;SDS011;10591;52.532;13.348;2023-07-09T11:39:42;5.78;;;5.17;;
20861;SDS011;10591;52.532;13.348;2023-07-09T11:45:12;4.85;;;4.45;;
20861;SDS011;10591;52.532;13.348;2023-07-09T11:52:59;6.25;;;5.65;;
20861;SDS011;10591;52.532;13.348;2023-07-09T11:55:38;5.30;;;4.90;;
20861;SDS011;10591;52.532;13.348;2023-07-09T11:58:12;5.25;;;4.75;;
20861;SDS011;10591;52.532;13.348;2023-07-09T12:00:48;5.60;;;5.10;;
20861;SDS011;10591;52.532;13.348;2023-07-09T12:03:34;5.40;;;4.90;;
20861;SDS011;10591;52.532;13.348;2023-07-09T12:06:20;5.33;;;4.92;;
20861;SDS011;10591;52.532;13.348;2023-07-09T12:08:52;5.60;;;4.90;;
20861;SDS011;10591;52.532;13.348;2023-07-09T12:11:24;6.03;;;5.50;;
20861;SDS011;10591;52.532;13.348;2023-07-09T12:16:43;6.53;;;5.37;;
20861;SDS011;10591;52.532;13.348;2023-07-09T12:19:17;5.10;;;4.70;;
20861;SDS011;10591;52.532;13.348;2023-07-09T12:21:50;6.05;;;5.55;;
20861;SDS011;10591;52.532;13.348;2023-07-09T12:24:26;5.80;;;5.30;;
20861;SDS011;10591;52.532;13.348;2023-07-09T12:26:59;6.65;;;6.05;;
20861;SDS011;10591;52.532;13.348;2023-07-09T12:29:34;6.00;;;5.40;;
20861;SDS011;10591;52.532;13.348;2023-07-09T12:32:12;6.58;;;5.30;;
20861;SDS011;10591;52.532;13.348;2023-07-09T12:34:51;5.92;;;5.25;;
20861;SDS011;10591;52.532;13.348;2023-07-09T12:37:24;6.00;;;5.45;;
20861;SDS011;10591;52.532;13.348;2023-07-09T12:39:58;6.17;;;4.92;;
20861;SDS011;10591;52.532;13.348;2023-07-09T12:42:32;5.58;;;5.05;;
20861;SDS011;10591;52.532;13.348;2023-07-09T12:45:03;6.10;;;5.60;;
20861;SDS011;10591;52.532;13.348;2023-07-09T12:47:35;5.33;;;4.92;;
20861;SDS011;10591;52.532;13.348;2023-07-09T12:50:18;5.95;;;5.35;;
20861;SDS011;10591;52.532;13.348;2023-07-09T12:52:49;5.85;;;5.35;;
20861;SDS011;10591;52.532;13.348;2023-07-09T12:55:21;6.28;;;5.65;;
20861;SDS011;10591;52.532;13.348;2023-07-09T12:57:57;5.70;;;5.20;;
20861;SDS011;10591;52.532;13.348;2023-07-09T13:00:29;5.58;;;5.17;;
20861;SDS011;10591;52.532;13.348;2023-07-09T13:03:01;6.60;;;5.40;;
20861;SDS011;10591;52.532;13.348;2023-07-09T13:05:32;6.05;;;5.55;;
20861;SDS011;10591;52.532;13.348;2023-07-09T13:08:03;6.30;;;5.78;;
20861;SDS011;10591;52.532;13.348;2023-07-09T13:10:40;5.47;;;5.05;;
20861;SDS011;10591;52.532;13.348;2023-07-09T13:13:11;7.17;;;5.35;;
20861;SDS011;10591;52.532;13.348;2023-07-09T13:15:47;6.72;;;6.12;;
20861;SDS011;10591;52.532;13.348;2023-07-09T13:18:25;5.62;;;5.12;;
20861;SDS011;10591;52.532;13.348;2023-07-09T13:20:57;5.97;;;5.15;;
20861;SDS011;10591;52.532;13.348;2023-07-09T13:23:30;5.80;;;5.20;;
20861;SDS011;10591;52.532;13.348;2023-07-09T13:26:02;5.72;;;5.22;;
20861;SDS011;10591;52.532;13.348;2023-07-09T13:28:32;6.17;;;5.15;;
20861;SDS011;10591;52.532;13.348;2023-07-09T13:31:10;6.00;;;5.50;;
20861;SDS011;10591;52.532;13.348;2023-07-09T13:33:53;5.67;;;5.17;;
20861;SDS011;10591;52.532;13.348;2023-07-09T13:36:23;5.83;;;5.33;;
20861;SDS011;10591;52.532;13.348;2023-07-09T13:38:56;6.08;;;5.47;;
20861;SDS011;10591;52.532;13.348;2023-07-09T13:41:27;6.25;;;5.62;;
20861;SDS011;10591;52.532;13.348;2023-07-09T13:43:58;5.80;;;5.10;;
20861;SDS011;10591;52.532;13.348;2023-07-09T13:46:29;5.85;;;5.25;;
20861;SDS011;10591;52.532;13.348;2023-07-09T13:48:59;5.55;;;5.05;;
20861;SDS011;10591;52.532;13.348;2023-07-09T13:51:33;6.17;;;5.58;;
20861;SDS011;10591;52.532;13.348;2023-07-09T13:54:09;6.42;;;5.75;;
20861;SDS011;10591;52.532;13.348;2023-07-09T13:56:37;5.83;;;5.33;;
20861;SDS011;10591;52.532;13.348;2023-07-09T13:59:19;6.47;;;5.42;;
20861;SDS011;10591;52.532;13.348;2023-07-09T14:01:52;6.33;;;5.72;;
20861;SDS011;10591;52.532;13.348;2023-07-09T14:04:25;5.83;;;5.33;;
20861;SDS011;10591;52.532;13.348;2023-07-09T14:06:57;6.20;;;5.15;;
20861;SDS011;10591;52.532;13.348;2023-07-09T14:09:30;5.83;;;5.28;;
20861;SDS011;10591;52.532;13.348;2023-07-09T14:12:04;5.97;;;5.37;;
20861;SDS011;10591;52.532;13.348;2023-07-09T14:14:40;6.30;;;5.70;;
20861;SDS011;10591;52.532;13.348;2023-07-09T14:17:14;6.05;;;5.53;;
20861;SDS011;10591;52.532;13.348;2023-07-09T14:19:46;6.92;;;5.70;;
20861;SDS011;10591;52.532;13.348;2023-07-09T14:22:21;6.03;;;5.42;;
20861;SDS011;10591;52.532;13.348;2023-07-09T14:25:00;6.03;;;5.50;;
20861;SDS011;10591;52.532;13.348;2023-07-09T14:27:33;6.10;;;5.50;;
20861;SDS011;10591;52.532;13.348;2023-07-09T14:30:04;6.37;;;5.72;;
20861;SDS011;10591;52.532;13.348;2023-07-09T14:32:37;7.33;;;6.28;;
20861;SDS011;10591;52.532;13.348;2023-07-09T14:35:14;5.60;;;5.10;;
20861;SDS011;10591;52.532;13.348;2023-07-09T14:37:46;6.15;;;5.55;;
20861;SDS011;10591;52.532;13.348;2023-07-09T14:40:18;5.87;;;5.28;;
20861;SDS011;10591;52.532;13.348;2023-07-09T14:42:50;5.60;;;5.10;;
20861;SDS011;10591;52.532;13.348;2023-07-09T14:45:22;6.35;;;5.75;;
20861;SDS011;10591;52.532;13.348;2023-07-09T14:47:55;5.58;;;5.17;;
20861;SDS011;10591;52.532;13.348;2023-07-09T14:50:27;5.70;;;5.20;;
20861;SDS011;10591;52.532;13.348;2023-07-09T14:52:58;5.90;;;5.40;;
20861;SDS011;10591;52.532;13.348;2023-07-09T14:55:29;5.67;;;5.17;;
20861;SDS011;10591;52.532;13.348;2023-07-09T14:58:00;6.05;;;5.55;;
20861;SDS011;10591;52.532;13.348;2023-07-09T15:00:33;5.62;;;5.10;;
20861;SDS011;10591;52.532;13.348;2023-07-09T15:03:07;6.87;;;5.47;;
20861;SDS011;10591;52.532;13.348;2023-07-09T15:05:38;5.85;;;5.33;;
20861;SDS011;10591;52.532;13.348;2023-07-09T15:08:11;6.22;;;5.67;;
20861;SDS011;10591;52.532;13.348;2023-07-09T15:10:51;5.75;;;5.25;;
20861;SDS011;10591;52.532;13.348;2023-07-09T15:13:31;5.95;;;5.42;;
20861;SDS011;10591;52.532;13.348;2023-07-09T15:16:04;6.35;;;5.78;;
20861;SDS011;10591;52.532;13.348;2023-07-09T15:18:35;5.72;;;5.22;;
20861;SDS011;10591;52.532;13.348;2023-07-09T15:21:10;6.30;;;5.65;;
20861;SDS011;10591;52.532;13.348;2023-07-09T15:23:42;6.28;;;5.67;;
20861;SDS011;10591;52.532;13.348;2023-07-09T15:26:16;6.45;;;5.50;;
20861;SDS011;10591;52.532;13.348;2023-07-09T15:28:46;6.60;;;6.00;;
20861;SDS011;10591;52.532;13.348;2023-07-09T15:31:19;8.03;;;6.45;;
20861;SDS011;10591;52.532;13.348;2023-07-09T15:33:49;6.22;;;5.58;;
20861;SDS011;10591;52.532;13.348;2023-07-09T15:36:20;7.30;;;5.72;;
20861;SDS011;10591;52.532;13.348;2023-07-09T15:38:51;6.10;;;5.60;;
20861;SDS011;10591;52.532;13.348;2023-07-09T15:41:21;6.37;;;5.87;;
20861;SDS011;10591;52.532;13.348;2023-07-09T15:43:52;6.35;;;5.45;;
20861;SDS011;10591;52.532;13.348;2023-07-09T15:46:22;6.22;;;5.72;;